createdAt,value
2022-10-15T00:04:11.448Z,12.42
2022-10-15T00:09:14.385Z,12.33
2022-10-15T00:14:17.384Z,12.41
2022-10-15T00:19:21.652Z,12.43
2022-10-15T00:24:24.550Z,12.38
2022-10-15T00:29:27.534Z,12.27
2022-10-15T00:34:32.476Z,12.43
2022-10-15T00:39:35.531Z,12.44
2022-10-15T00:44:56.401Z,12.52
2022-10-15T00:50:04.960Z,12.25
2022-10-15T00:55:11.859Z,12.33
2022-10-15T01:00:16.358Z,12.24
2022-10-15T01:05:24.653Z,12.27
2022-10-15T01:10:35.948Z,12.42
2022-10-15T01:15:47.482Z,12.22
2022-10-15T01:21:04.257Z,12.21
2022-10-15T01:26:26.923Z,12.03
2022-10-15T01:31:40.768Z,12.14
2022-10-15T01:36:52.244Z,12.05
2022-10-15T01:42:01.424Z,11.97
2022-10-15T01:47:09.678Z,11.98
2022-10-15T01:52:17.959Z,12.03
2022-10-15T01:57:24.129Z,12.10
2022-10-15T02:02:28.723Z,12.06
2022-10-15T02:07:42.047Z,11.95
2022-10-15T02:12:58.937Z,12.07
2022-10-15T02:18:10.721Z,12.08
2022-10-15T02:23:20.409Z,11.91
2022-10-15T02:28:27.348Z,12.04
2022-10-15T02:33:33.448Z,12.19
2022-10-15T02:38:38.743Z,11.99
2022-10-15T02:43:42.743Z,12.04
2022-10-15T02:48:49.402Z,11.92
2022-10-15T02:53:54.196Z,11.96
2022-10-15T02:58:57.652Z,11.94
2022-10-15T03:04:02.888Z,11.92
2022-10-15T03:09:07.632Z,11.88
2022-10-15T03:14:10.830Z,11.85
2022-10-15T03:19:16.085Z,11.94
2022-10-15T03:24:21.066Z,11.88
2022-10-15T03:29:24.320Z,11.97
2022-10-15T03:34:35.461Z,12.06
2022-10-15T03:39:38.867Z,12.01
2022-10-15T03:44:43.844Z,12.03
2022-10-15T03:49:51.689Z,11.98
2022-10-15T03:54:55.951Z,12.08
2022-10-15T04:00:00.572Z,12.04
2022-10-15T04:05:24.837Z,11.88
2022-10-15T04:10:32.801Z,11.91
2022-10-15T04:15:36.017Z,11.88
2022-10-15T04:20:46.835Z,12.06
2022-10-15T04:25:53.953Z,12.02
2022-10-15T04:30:59.000Z,12.06
2022-10-15T04:36:05.793Z,12.00
2022-10-15T04:41:23.464Z,12.15
2022-10-15T04:46:48.111Z,11.93
2022-10-15T04:52:18.464Z,11.86
2022-10-15T04:57:32.026Z,11.87
2022-10-15T05:02:35.429Z,11.86
2022-10-15T05:08:01.125Z,11.78
2022-10-15T05:13:05.417Z,11.84
2022-10-15T05:18:11.206Z,11.72
2022-10-15T05:23:23.504Z,11.59
2022-10-15T05:28:40.837Z,11.65
2022-10-15T05:33:44.315Z,11.54
2022-10-15T05:38:50.612Z,11.55
2022-10-15T05:43:55.965Z,11.57
2022-10-15T05:49:02.177Z,11.70
2022-10-15T05:54:09.270Z,11.68
2022-10-15T05:59:14.395Z,11.66
2022-10-15T06:04:17.377Z,11.70
2022-10-15T06:09:21.641Z,11.69
2022-10-15T06:14:25.001Z,11.77
2022-10-15T06:19:27.960Z,11.60
2022-10-15T06:24:32.292Z,11.62
2022-10-15T06:29:35.193Z,11.82
2022-10-15T06:34:38.206Z,11.91
2022-10-15T06:39:42.479Z,11.96
2022-10-15T06:44:45.387Z,12.12
2022-10-15T06:49:52.092Z,12.33
2022-10-15T06:54:56.404Z,12.39
2022-10-15T06:59:59.293Z,12.44
2022-10-15T07:05:02.313Z,12.49
2022-10-15T07:10:07.606Z,12.21
2022-10-15T07:15:11.728Z,12.08
2022-10-15T07:20:14.822Z,11.95
2022-10-15T07:25:19.113Z,12.18
2022-10-15T07:30:22.742Z,12.64
2022-10-15T07:35:28.922Z,12.78
2022-10-15T07:40:33.258Z,12.77
2022-10-15T07:45:36.777Z,13.37
2022-10-15T07:50:40.385Z,13.59
2022-10-15T07:55:46.572Z,13.72
2022-10-15T08:00:49.513Z,13.47
2022-10-15T08:05:53.321Z,13.54
2022-10-15T08:10:59.166Z,13.54
2022-10-15T08:16:02.090Z,13.44
2022-10-15T08:21:06.234Z,13.69
2022-10-15T08:26:10.505Z,13.76
2022-10-15T08:31:13.871Z,13.90
2022-10-15T08:36:16.750Z,14.11
2022-10-15T08:41:29.001Z,13.99
2022-10-15T08:46:37.830Z,14.01
2022-10-15T08:51:45.866Z,14.06
2022-10-15T08:56:54.759Z,14.12
2022-10-15T09:02:02.307Z,14.20
2022-10-15T09:07:12.192Z,14.35
2022-10-15T09:12:37.763Z,14.44
2022-10-15T09:17:42.906Z,13.87
2022-10-15T09:22:52.050Z,14.28
2022-10-15T09:27:57.947Z,13.95
2022-10-15T09:33:08.033Z,14.39
2022-10-15T09:38:30.095Z,14.26
2022-10-15T09:43:37.487Z,14.67
2022-10-15T09:48:45.855Z,14.62
2022-10-15T09:53:55.880Z,14.92
2022-10-15T09:59:03.661Z,14.83
2022-10-15T10:04:15.032Z,15.33
2022-10-15T10:09:21.279Z,15.51
2022-10-15T10:14:30.098Z,15.18
2022-10-15T10:19:33.105Z,15.12
2022-10-15T10:24:36.548Z,15.04
2022-10-15T10:29:52.612Z,15.69
2022-10-15T10:34:55.985Z,15.56
2022-10-15T10:40:01.575Z,15.53
2022-10-15T10:45:22.179Z,15.23
2022-10-15T10:50:31.482Z,15.44
2022-10-15T10:55:40.090Z,15.76
2022-10-15T11:00:47.345Z,15.62
2022-10-15T11:05:55.921Z,15.43
2022-10-15T11:11:08.063Z,15.59
2022-10-15T11:16:20.806Z,15.76
2022-10-15T11:21:41.581Z,15.37
2022-10-15T11:27:10.824Z,15.49
2022-10-15T11:32:42.125Z,15.75
2022-10-15T11:38:04.212Z,15.97
2022-10-15T11:43:20.336Z,16.08
2022-10-15T11:48:36.860Z,15.80
2022-10-15T11:53:59.648Z,16.06
2022-10-15T11:59:12.471Z,16.80
2022-10-15T12:04:21.266Z,17.12
2022-10-15T12:09:29.713Z,16.82
2022-10-15T12:14:39.487Z,17.23
2022-10-15T12:19:50.035Z,17.61
2022-10-15T12:24:56.978Z,17.82
2022-10-15T12:30:20.891Z,17.02
2022-10-15T12:35:34.734Z,16.94
2022-10-15T12:40:40.796Z,16.73
2022-10-15T12:45:51.868Z,16.88
2022-10-15T12:51:40.007Z,16.98
2022-10-15T12:56:43.075Z,17.01
2022-10-15T13:01:53.371Z,17.05
2022-10-15T13:07:04.993Z,17.33
2022-10-15T13:12:19.049Z,17.66
2022-10-15T13:17:23.556Z,17.44
2022-10-15T13:22:29.730Z,17.95
2022-10-15T13:27:35.649Z,18.17
2022-10-15T13:32:45.406Z,18.28
2022-10-15T13:37:51.226Z,18.29
2022-10-15T13:43:20.558Z,17.62
2022-10-15T13:48:25.118Z,16.90
2022-10-15T13:53:31.947Z,17.47
2022-10-15T13:58:39.465Z,17.32
2022-10-15T14:03:49.790Z,17.54
2022-10-15T14:08:55.535Z,17.50
2022-10-15T14:14:00.515Z,17.20
2022-10-15T14:19:12.785Z,17.35
2022-10-15T14:24:18.118Z,17.84
2022-10-15T14:29:28.752Z,17.73
2022-10-15T14:34:38.491Z,17.46
2022-10-15T14:39:41.597Z,17.32
2022-10-15T14:44:48.332Z,17.30
2022-10-15T14:49:55.114Z,17.45
2022-10-15T14:55:03.875Z,17.46
2022-10-15T15:00:21.980Z,17.37
2022-10-15T15:05:26.721Z,17.04
2022-10-15T15:10:29.738Z,16.91
2022-10-15T15:15:34.064Z,16.84
2022-10-15T15:20:37.176Z,16.80
2022-10-15T15:25:41.221Z,16.71
2022-10-15T15:30:46.461Z,16.57
2022-10-15T15:35:51.724Z,16.26
2022-10-15T15:40:54.673Z,16.16
2022-10-15T15:45:59.070Z,16.01
2022-10-15T15:51:05.288Z,15.84
2022-10-15T15:56:08.406Z,15.76
2022-10-15T16:01:12.847Z,15.79
2022-10-15T16:06:15.748Z,15.68
2022-10-15T16:11:18.671Z,15.67
2022-10-15T16:16:23.015Z,15.63
2022-10-15T16:21:26.801Z,15.50
2022-10-15T16:26:29.720Z,15.24
2022-10-15T16:31:36.850Z,15.24
2022-10-15T16:36:40.080Z,15.20
2022-10-15T16:41:43.005Z,15.13
2022-10-15T16:46:47.260Z,15.15
2022-10-15T16:51:50.225Z,14.97
2022-10-15T16:56:53.641Z,15.07
2022-10-15T17:01:57.970Z,15.08
2022-10-15T17:07:01.004Z,15.12
2022-10-15T17:12:04.194Z,15.09
2022-10-15T17:17:08.764Z,15.02
2022-10-15T17:22:11.691Z,14.86
2022-10-15T17:27:14.644Z,15.06
2022-10-15T17:32:19.135Z,14.70
2022-10-15T17:37:22.625Z,14.53
2022-10-15T17:42:25.900Z,14.51
2022-10-15T17:47:31.020Z,14.52
2022-10-15T17:52:34.641Z,14.57
2022-10-15T17:57:37.749Z,14.53
2022-10-15T18:02:42.129Z,14.34
2022-10-15T18:07:45.109Z,14.29
2022-10-15T18:12:48.085Z,13.99
2022-10-15T18:17:52.383Z,13.85
2022-10-15T18:22:55.327Z,13.79
2022-10-15T18:27:58.282Z,13.80
2022-10-15T18:33:02.560Z,13.58
2022-10-15T18:38:05.496Z,13.38
2022-10-15T18:43:08.409Z,13.27
2022-10-15T18:48:12.687Z,13.20
2022-10-15T18:53:15.600Z,13.20
2022-10-15T18:58:18.567Z,12.97
2022-10-15T19:03:22.840Z,12.78
2022-10-15T19:08:26.340Z,12.86
2022-10-15T19:13:29.252Z,12.78
2022-10-15T19:18:34.368Z,12.76
2022-10-15T19:23:37.349Z,12.62
2022-10-15T19:28:40.541Z,12.70
2022-10-15T19:33:45.012Z,12.66
2022-10-15T19:38:47.909Z,12.52
2022-10-15T19:43:52.431Z,12.49
2022-10-15T19:48:57.887Z,12.25
2022-10-15T19:54:01.375Z,12.30
2022-10-15T19:59:07.629Z,12.12
2022-10-15T20:04:12.076Z,12.08
2022-10-15T20:09:15.003Z,12.18
2022-10-15T20:14:17.931Z,12.19
2022-10-15T20:19:23.053Z,12.22
2022-10-15T20:24:27.093Z,12.15
2022-10-15T20:29:30.091Z,12.26
2022-10-15T20:34:35.156Z,12.23
2022-10-15T20:39:38.067Z,12.16
2022-10-15T20:44:41.015Z,12.19
2022-10-15T20:49:49.370Z,12.08
2022-10-15T20:54:52.498Z,12.09
2022-10-15T20:59:55.415Z,11.97
2022-10-15T21:04:59.759Z,11.99
2022-10-15T21:10:02.835Z,12.00
2022-10-15T21:15:06.577Z,12.05
2022-10-15T21:20:11.624Z,12.15
2022-10-15T21:25:14.540Z,12.19
2022-10-15T21:30:17.695Z,12.14
2022-10-15T21:35:22.073Z,12.12
2022-10-15T21:40:24.977Z,12.10
2022-10-15T21:45:27.973Z,12.11
2022-10-15T21:50:32.223Z,11.99
2022-10-15T21:55:35.101Z,12.03
2022-10-15T22:00:38.007Z,11.97
2022-10-15T22:05:42.275Z,11.96
2022-10-15T22:10:45.528Z,12.04
2022-10-15T22:15:48.486Z,12.05
2022-10-15T22:20:52.773Z,12.01
2022-10-15T22:25:59.265Z,12.00
2022-10-15T22:31:04.481Z,11.90
2022-10-15T22:36:17.214Z,11.88
2022-10-15T22:41:20.356Z,11.91
2022-10-15T22:46:23.282Z,11.85
2022-10-15T22:51:27.703Z,11.77
2022-10-15T22:56:31.553Z,11.74
2022-10-15T23:01:35.892Z,11.77
2022-10-15T23:06:40.475Z,11.74
2022-10-15T23:11:43.433Z,11.79
2022-10-15T23:16:48.975Z,11.68
2022-10-15T23:21:55.987Z,11.63
2022-10-15T23:26:58.864Z,11.64
2022-10-15T23:32:01.859Z,11.76
2022-10-15T23:37:06.196Z,11.72
2022-10-15T23:42:09.118Z,11.62
2022-10-15T23:47:12.058Z,11.65
2022-10-15T23:52:16.331Z,11.62
2022-10-15T23:57:19.221Z,11.66
